sensor_id;sensor_type;location;lat;lon;timestamp;temperature;humidity
51035;DHT22;37062;52.546;13.230;2022-12-29T00:01:01;10.30;99.90
51035;DHT22;37062;52.546;13.230;2022-12-29T00:03:29;10.30;99.90
51035;DHT22;37062;52.546;13.230;2022-12-29T00:05:57;10.30;99.90
51035;DHT22;37062;52.546;13.230;2022-12-29T00:08:26;10.30;99.90
51035;DHT22;37062;52.546;13.230;2022-12-29T00:11:07;10.30;99.90
51035;DHT22;37062;52.546;13.230;2022-12-29T00:13:35;10.30;99.90
51035;DHT22;37062;52.546;13.230;2022-12-29T00:16:22;10.40;99.90
51035;DHT22;37062;52.546;13.230;2022-12-29T00:18:51;10.40;99.90
51035;DHT22;37062;52.546;13.230;2022-12-29T00:21:21;10.40;99.90
51035;DHT22;37062;52.546;13.230;2022-12-29T00:24:11;10.40;99.90
51035;DHT22;37062;52.546;13.230;2022-12-29T00:27:07;10.40;99.90
51035;DHT22;37062;52.546;13.230;2022-12-29T00:29:55;10.40;99.90
51035;DHT22;37062;52.546;13.230;2022-12-29T00:32:42;10.40;99.90
51035;DHT22;37062;52.546;13.230;2022-12-29T00:35:29;10.50;99.90
51035;DHT22;37062;52.546;13.230;2022-12-29T00:38:03;10.50;99.90
51035;DHT22;37062;52.546;13.230;2022-12-29T00:40:50;10.40;99.90
51035;DHT22;37062;52.546;13.230;2022-12-29T00:43:35;10.40;99.90
51035;DHT22;37062;52.546;13.230;2022-12-29T00:46:21;10.50;99.90
51035;DHT22;37062;52.546;13.230;2022-12-29T00:48:50;10.40;99.90
51035;DHT22;37062;52.546;13.230;2022-12-29T00:51:36;10.40;99.90
51035;DHT22;37062;52.546;13.230;2022-12-29T00:54:04;10.40;99.90
51035;DHT22;37062;52.546;13.230;2022-12-29T00:56:33;10.40;99.90
51035;DHT22;37062;52.546;13.230;2022-12-29T00:59:01;10.40;99.90
51035;DHT22;37062;52.546;13.230;2022-12-29T01:01:30;10.40;99.90
51035;DHT22;37062;52.546;13.230;2022-12-29T01:04:00;10.40;99.90
51035;DHT22;37062;52.546;13.230;2022-12-29T01:06:30;10.40;99.90
51035;DHT22;37062;52.546;13.230;2022-12-29T01:08:59;10.40;99.90
51035;DHT22;37062;52.546;13.230;2022-12-29T01:11:44;10.50;99.90
51035;DHT22;37062;52.546;13.230;2022-12-29T01:14:13;10.50;99.90
51035;DHT22;37062;52.546;13.230;2022-12-29T01:16:41;10.50;99.90
51035;DHT22;37062;52.546;13.230;2022-12-29T01:19:11;10.50;99.90
51035;DHT22;37062;52.546;13.230;2022-12-29T01:21:39;10.50;99.90
51035;DHT22;37062;52.546;13.230;2022-12-29T01:24:08;10.50;99.90
51035;DHT22;37062;52.546;13.230;2022-12-29T01:26:36;10.50;99.90
51035;DHT22;37062;52.546;13.230;2022-12-29T01:29:04;10.50;99.90
51035;DHT22;37062;52.546;13.230;2022-12-29T01:31:33;10.50;99.90
51035;DHT22;37062;52.546;13.230;2022-12-29T01:34:01;10.50;99.90
51035;DHT22;37062;52.546;13.230;2022-12-29T01:36:31;10.50;99.90
51035;DHT22;37062;52.546;13.230;2022-12-29T01:39:00;10.50;99.90
51035;DHT22;37062;52.546;13.230;2022-12-29T01:41:28;10.50;99.90
51035;DHT22;37062;52.546;13.230;2022-12-29T01:43:58;10.50;99.90
51035;DHT22;37062;52.546;13.230;2022-12-29T01:46:30;10.60;99.90
51035;DHT22;37062;52.546;13.230;2022-12-29T01:49:16;10.50;99.90
51035;DHT22;37062;52.546;13.230;2022-12-29T01:51:50;10.50;99.90
51035;DHT22;37062;52.546;13.230;2022-12-29T01:54:23;10.50;99.90
51035;DHT22;37062;52.546;13.230;2022-12-29T01:56:55;10.50;99.90
51035;DHT22;37062;52.546;13.230;2022-12-29T01:59:26;10.50;99.90
51035;DHT22;37062;52.546;13.230;2022-12-29T02:01:55;10.50;99.90
51035;DHT22;37062;52.546;13.230;2022-12-29T02:04:26;10.50;99.90
51035;DHT22;37062;52.546;13.230;2022-12-29T02:07:01;10.50;99.90
51035;DHT22;37062;52.546;13.230;2022-12-29T02:09:30;10.50;99.90
51035;DHT22;37062;52.546;13.230;2022-12-29T02:11:59;10.50;99.90
51035;DHT22;37062;52.546;13.230;2022-12-29T02:14:28;10.50;99.90
51035;DHT22;37062;52.546;13.230;2022-12-29T02:17:04;10.50;99.90
51035;DHT22;37062;52.546;13.230;2022-12-29T02:20:23;10.50;99.90
51035;DHT22;37062;52.546;13.230;2022-12-29T02:23:11;10.50;99.90
51035;DHT22;37062;52.546;13.230;2022-12-29T02:26:01;10.60;99.90
51035;DHT22;37062;52.546;13.230;2022-12-29T02:29:07;10.60;99.90
51035;DHT22;37062;52.546;13.230;2022-12-29T02:31:49;10.60;99.90
51035;DHT22;37062;52.546;13.230;2022-12-29T02:34:26;10.50;99.90
51035;DHT22;37062;52.546;13.230;2022-12-29T02:37:02;10.60;99.90
51035;DHT22;37062;52.546;13.230;2022-12-29T02:39:40;10.60;99.90
51035;DHT22;37062;52.546;13.230;2022-12-29T02:42:15;10.60;99.90
51035;DHT22;37062;52.546;13.230;2022-12-29T02:44:53;10.60;99.90
51035;DHT22;37062;52.546;13.230;2022-12-29T02:47:30;10.60;99.90
51035;DHT22;37062;52.546;13.230;2022-12-29T02:50:07;10.60;99.90
51035;DHT22;37062;52.546;13.230;2022-12-29T02:52:39;10.60;99.90
51035;DHT22;37062;52.546;13.230;2022-12-29T02:55:10;10.70;99.90
51035;DHT22;37062;52.546;13.230;2022-12-29T02:57:38;10.70;99.90
51035;DHT22;37062;52.546;13.230;2022-12-29T03:00:09;10.70;99.90
51035;DHT22;37062;52.546;13.230;2022-12-29T03:03:05;10.80;99.90
51035;DHT22;37062;52.546;13.230;2022-12-29T03:05:57;10.80;99.90
51035;DHT22;37062;52.546;13.230;2022-12-29T03:08:32;10.80;99.90
51035;DHT22;37062;52.546;13.230;2022-12-29T03:11:05;10.80;99.90
51035;DHT22;37062;52.546;13.230;2022-12-29T03:13:58;10.90;99.90
51035;DHT22;37062;52.546;13.230;2022-12-29T03:16:46;10.90;99.90
51035;DHT22;37062;52.546;13.230;2022-12-29T03:19:19;10.90;99.90
51035;DHT22;37062;52.546;13.230;2022-12-29T03:21:53;11.00;99.90
51035;DHT22;37062;52.546;13.230;2022-12-29T03:24:45;11.00;99.90
51035;DHT22;37062;52.546;13.230;2022-12-29T03:27:21;11.10;99.90
51035;DHT22;37062;52.546;13.230;2022-12-29T03:29:53;11.10;99.90
51035;DHT22;37062;52.546;13.230;2022-12-29T03:32:26;11.10;99.90
51035;DHT22;37062;52.546;13.230;2022-12-29T03:34:59;11.20;99.90
51035;DHT22;37062;52.546;13.230;2022-12-29T03:37:31;11.20;99.90
51035;DHT22;37062;52.546;13.230;2022-12-29T03:40:03;11.20;99.90
51035;DHT22;37062;52.546;13.230;2022-12-29T03:42:35;11.20;99.90
51035;DHT22;37062;52.546;13.230;2022-12-29T03:45:05;11.30;99.90
51035;DHT22;37062;52.546;13.230;2022-12-29T03:47:34;11.30;99.90
51035;DHT22;37062;52.546;13.230;2022-12-29T03:50:05;11.30;99.90
51035;DHT22;37062;52.546;13.230;2022-12-29T03:52:38;11.40;99.90
51035;DHT22;37062;52.546;13.230;2022-12-29T03:55:08;11.40;99.90
51035;DHT22;37062;52.546;13.230;2022-12-29T03:57:38;11.40;99.90
51035;DHT22;37062;52.546;13.230;2022-12-29T04:00:10;11.40;99.90
51035;DHT22;37062;52.546;13.230;2022-12-29T04:02:44;11.40;99.90
51035;DHT22;37062;52.546;13.230;2022-12-29T04:05:20;11.40;99.90
51035;DHT22;37062;52.546;13.230;2022-12-29T04:07:51;11.50;99.90
51035;DHT22;37062;52.546;13.230;2022-12-29T04:10:19;11.50;99.90
51035;DHT22;37062;52.546;13.230;2022-12-29T04:12:50;11.50;99.90
51035;DHT22;37062;52.546;13.230;2022-12-29T04:15:19;11.50;99.90
51035;DHT22;37062;52.546;13.230;2022-12-29T04:17:48;11.50;99.90
51035;DHT22;37062;52.546;13.230;2022-12-29T04:20:16;11.60;99.90
51035;DHT22;37062;52.546;13.230;2022-12-29T04:23:06;11.60;99.90
51035;DHT22;37062;52.546;13.230;2022-12-29T04:25:36;11.60;99.90
51035;DHT22;37062;52.546;13.230;2022-12-29T04:28:07;11.60;99.90
51035;DHT22;37062;52.546;13.230;2022-12-29T04:30:54;11.60;99.90
51035;DHT22;37062;52.546;13.230;2022-12-29T04:33:31;11.60;99.90
51035;DHT22;37062;52.546;13.230;2022-12-29T04:36:00;11.60;99.90
51035;DHT22;37062;52.546;13.230;2022-12-29T04:38:30;11.60;99.90
51035;DHT22;37062;52.546;13.230;2022-12-29T04:41:00;11.60;99.90
51035;DHT22;37062;52.546;13.230;2022-12-29T04:43:29;11.60;99.90
51035;DHT22;37062;52.546;13.230;2022-12-29T04:46:27;11.60;99.90
51035;DHT22;37062;52.546;13.230;2022-12-29T04:48:58;11.60;99.90
51035;DHT22;37062;52.546;13.230;2022-12-29T04:51:52;11.50;99.90
51035;DHT22;37062;52.546;13.230;2022-12-29T04:54:23;11.50;99.90
51035;DHT22;37062;52.546;13.230;2022-12-29T04:57:14;11.50;99.90
51035;DHT22;37062;52.546;13.230;2022-12-29T04:59:48;11.50;99.90
51035;DHT22;37062;52.546;13.230;2022-12-29T05:02:17;11.60;99.90
51035;DHT22;37062;52.546;13.230;2022-12-29T05:04:48;11.60;99.90
51035;DHT22;37062;52.546;13.230;2022-12-29T05:07:17;11.60;99.90
51035;DHT22;37062;52.546;13.230;2022-12-29T05:09:49;11.60;99.90
51035;DHT22;37062;52.546;13.230;2022-12-29T05:12:17;11.70;99.90
51035;DHT22;37062;52.546;13.230;2022-12-29T05:14:53;11.70;99.90
51035;DHT22;37062;52.546;13.230;2022-12-29T05:17:22;11.70;99.90
51035;DHT22;37062;52.546;13.230;2022-12-29T05:19:50;11.70;99.90
51035;DHT22;37062;52.546;13.230;2022-12-29T05:22:19;11.70;99.90
51035;DHT22;37062;52.546;13.230;2022-12-29T05:24:49;11.70;99.90
51035;DHT22;37062;52.546;13.230;2022-12-29T05:27:18;11.70;99.90
51035;DHT22;37062;52.546;13.230;2022-12-29T05:30:12;11.80;99.90
51035;DHT22;37062;52.546;13.230;2022-12-29T05:32:40;11.80;99.90
51035;DHT22;37062;52.546;13.230;2022-12-29T05:35:09;11.80;99.90
51035;DHT22;37062;52.546;13.230;2022-12-29T05:37:37;11.90;99.90
51035;DHT22;37062;52.546;13.230;2022-12-29T05:40:09;11.90;99.90
51035;DHT22;37062;52.546;13.230;2022-12-29T05:42:37;11.90;99.90
51035;DHT22;37062;52.546;13.230;2022-12-29T05:45:30;11.90;99.90
51035;DHT22;37062;52.546;13.230;2022-12-29T05:48:23;11.90;99.90
51035;DHT22;37062;52.546;13.230;2022-12-29T05:51:14;11.90;99.90
51035;DHT22;37062;52.546;13.230;2022-12-29T05:53:49;12.00;99.90
51035;DHT22;37062;52.546;13.230;2022-12-29T05:56:19;12.00;99.90
51035;DHT22;37062;52.546;13.230;2022-12-29T05:58:54;12.00;99.90
51035;DHT22;37062;52.546;13.230;2022-12-29T06:01:23;12.00;99.90
51035;DHT22;37062;52.546;13.230;2022-12-29T06:03:53;12.00;99.90
51035;DHT22;37062;52.546;13.230;2022-12-29T06:06:21;12.10;99.90
51035;DHT22;37062;52.546;13.230;2022-12-29T06:08:49;12.10;99.90
51035;DHT22;37062;52.546;13.230;2022-12-29T06:11:20;12.10;99.90
51035;DHT22;37062;52.546;13.230;2022-12-29T06:13:52;12.20;99.90
51035;DHT22;37062;52.546;13.230;2022-12-29T06:16:22;12.20;99.90
51035;DHT22;37062;52.546;13.230;2022-12-29T06:18:53;12.20;99.90
51035;DHT22;37062;52.546;13.230;2022-12-29T06:21:22;12.20;99.90
51035;DHT22;37062;52.546;13.230;2022-12-29T06:23:50;12.20;99.90
51035;DHT22;37062;52.546;13.230;2022-12-29T06:26:19;12.20;99.90
51035;DHT22;37062;52.546;13.230;2022-12-29T06:28:48;12.30;99.90
51035;DHT22;37062;52.546;13.230;2022-12-29T06:31:16;12.30;99.90
51035;DHT22;37062;52.546;13.230;2022-12-29T06:33:45;12.30;99.90
51035;DHT22;37062;52.546;13.230;2022-12-29T06:36:16;12.30;99.90
51035;DHT22;37062;52.546;13.230;2022-12-29T06:38:44;12.30;99.90
51035;DHT22;37062;52.546;13.230;2022-12-29T06:41:12;12.30;99.90
51035;DHT22;37062;52.546;13.230;2022-12-29T06:44:00;12.30;99.90
51035;DHT22;37062;52.546;13.230;2022-12-29T06:46:44;12.30;99.90
51035;DHT22;37062;52.546;13.230;2022-12-29T06:49:12;12.30;99.90
51035;DHT22;37062;52.546;13.230;2022-12-29T06:51:40;12.30;99.90
51035;DHT22;37062;52.546;13.230;2022-12-29T06:54:08;12.30;99.90
51035;DHT22;37062;52.546;13.230;2022-12-29T06:56:36;12.30;99.90
51035;DHT22;37062;52.546;13.230;2022-12-29T06:59:06;12.30;99.90
51035;DHT22;37062;52.546;13.230;2022-12-29T07:01:34;12.30;99.90
51035;DHT22;37062;52.546;13.230;2022-12-29T07:04:03;12.30;99.90
51035;DHT22;37062;52.546;13.230;2022-12-29T07:06:32;12.30;99.90
51035;DHT22;37062;52.546;13.230;2022-12-29T07:09:00;12.30;99.90
51035;DHT22;37062;52.546;13.230;2022-12-29T07:11:28;12.30;99.90
51035;DHT22;37062;52.546;13.230;2022-12-29T07:13:56;12.30;99.90
51035;DHT22;37062;52.546;13.230;2022-12-29T07:16:29;12.30;99.90
51035;DHT22;37062;52.546;13.230;2022-12-29T07:18:57;12.30;99.90
51035;DHT22;37062;52.546;13.230;2022-12-29T07:21:26;12.40;99.90
51035;DHT22;37062;52.546;13.230;2022-12-29T07:23:54;12.40;99.90
51035;DHT22;37062;52.546;13.230;2022-12-29T07:26:22;12.40;99.90
51035;DHT22;37062;52.546;13.230;2022-12-29T07:28:51;12.40;99.90
51035;DHT22;37062;52.546;13.230;2022-12-29T07:31:20;12.40;99.90
51035;DHT22;37062;52.546;13.230;2022-12-29T07:33:50;12.30;99.90
51035;DHT22;37062;52.546;13.230;2022-12-29T07:36:18;12.30;99.90
51035;DHT22;37062;52.546;13.230;2022-12-29T07:38:47;12.30;99.90
51035;DHT22;37062;52.546;13.230;2022-12-29T07:41:15;12.30;99.90
51035;DHT22;37062;52.546;13.230;2022-12-29T07:43:46;12.30;99.90
51035;DHT22;37062;52.546;13.230;2022-12-29T07:46:30;12.30;99.90
51035;DHT22;37062;52.546;13.230;2022-12-29T07:49:19;12.30;99.90
51035;DHT22;37062;52.546;13.230;2022-12-29T07:51:48;12.30;99.90
51035;DHT22;37062;52.546;13.230;2022-12-29T07:54:16;12.30;99.90
51035;DHT22;37062;52.546;13.230;2022-12-29T07:56:45;12.30;99.90
51035;DHT22;37062;52.546;13.230;2022-12-29T07:59:13;12.20;99.90
51035;DHT22;37062;52.546;13.230;2022-12-29T08:01:41;12.20;99.90
51035;DHT22;37062;52.546;13.230;2022-12-29T08:04:10;12.20;99.90
51035;DHT22;37062;52.546;13.230;2022-12-29T08:06:39;12.30;99.90
51035;DHT22;37062;52.546;13.230;2022-12-29T08:09:08;12.30;99.90
51035;DHT22;37062;52.546;13.230;2022-12-29T08:11:43;12.30;99.90
51035;DHT22;37062;52.546;13.230;2022-12-29T08:14:12;12.30;99.90
51035;DHT22;37062;52.546;13.230;2022-12-29T08:16:40;12.30;99.90
51035;DHT22;37062;52.546;13.230;2022-12-29T08:19:10;12.30;99.90
51035;DHT22;37062;52.546;13.230;2022-12-29T08:21:40;12.40;99.90
51035;DHT22;37062;52.546;13.230;2022-12-29T08:24:09;12.40;99.90
51035;DHT22;37062;52.546;13.230;2022-12-29T08:26:37;12.40;99.90
51035;DHT22;37062;52.546;13.230;2022-12-29T08:29:05;12.30;99.90
51035;DHT22;37062;52.546;13.230;2022-12-29T08:31:33;12.30;99.90
51035;DHT22;37062;52.546;13.230;2022-12-29T08:34:02;12.30;99.90
51035;DHT22;37062;52.546;13.230;2022-12-29T08:36:31;12.30;99.90
51035;DHT22;37062;52.546;13.230;2022-12-29T08:39:00;12.40;99.90
51035;DHT22;37062;52.546;13.230;2022-12-29T08:41:28;12.40;99.90
51035;DHT22;37062;52.546;13.230;2022-12-29T08:43:56;12.40;99.90
51035;DHT22;37062;52.546;13.230;2022-12-29T08:46:25;12.40;99.90
51035;DHT22;37062;52.546;13.230;2022-12-29T08:48:53;12.40;99.90
51035;DHT22;37062;52.546;13.230;2022-12-29T08:51:22;12.50;99.90
51035;DHT22;37062;52.546;13.230;2022-12-29T08:53:51;12.50;99.90
51035;DHT22;37062;52.546;13.230;2022-12-29T08:56:22;12.70;99.90
51035;DHT22;37062;52.546;13.230;2022-12-29T08:58:54;12.70;99.90
51035;DHT22;37062;52.546;13.230;2022-12-29T09:01:24;12.80;99.90
51035;DHT22;37062;52.546;13.230;2022-12-29T09:03:53;12.90;99.90
51035;DHT22;37062;52.546;13.230;2022-12-29T09:06:41;12.90;99.90
51035;DHT22;37062;52.546;13.230;2022-12-29T09:09:09;13.00;99.90
51035;DHT22;37062;52.546;13.230;2022-12-29T09:11:40;12.90;99.90
51035;DHT22;37062;52.546;13.230;2022-12-29T09:14:08;12.90;99.90
51035;DHT22;37062;52.546;13.230;2022-12-29T09:16:37;13.00;99.90
51035;DHT22;37062;52.546;13.230;2022-12-29T09:19:05;13.10;99.90
51035;DHT22;37062;52.546;13.230;2022-12-29T09:21:33;13.20;99.90
51035;DHT22;37062;52.546;13.230;2022-12-29T09:24:02;13.20;99.90
51035;DHT22;37062;52.546;13.230;2022-12-29T09:26:30;13.30;99.90
51035;DHT22;37062;52.546;13.230;2022-12-29T09:29:00;13.30;99.90
51035;DHT22;37062;52.546;13.230;2022-12-29T09:31:28;13.40;99.90
51035;DHT22;37062;52.546;13.230;2022-12-29T09:33:56;13.50;99.90
51035;DHT22;37062;52.546;13.230;2022-12-29T09:36:25;13.50;99.90
51035;DHT22;37062;52.546;13.230;2022-12-29T09:38:53;13.50;99.90
51035;DHT22;37062;52.546;13.230;2022-12-29T09:41:26;13.40;99.90
51035;DHT22;37062;52.546;13.230;2022-12-29T09:44:05;13.40;99.90
51035;DHT22;37062;52.546;13.230;2022-12-29T09:46:36;13.40;99.90
51035;DHT22;37062;52.546;13.230;2022-12-29T09:49:13;13.50;99.90
51035;DHT22;37062;52.546;13.230;2022-12-29T09:51:47;13.60;99.90
51035;DHT22;37062;52.546;13.230;2022-12-29T09:54:38;13.70;99.90
51035;DHT22;37062;52.546;13.230;2022-12-29T09:57:13;13.70;99.90
51035;DHT22;37062;52.546;13.230;2022-12-29T09:59:45;13.80;99.90
51035;DHT22;37062;52.546;13.230;2022-12-29T10:02:24;13.80;99.90
51035;DHT22;37062;52.546;13.230;2022-12-29T10:04:55;13.80;99.90
51035;DHT22;37062;52.546;13.230;2022-12-29T10:07:30;13.90;99.90
51035;DHT22;37062;52.546;13.230;2022-12-29T10:10:15;13.90;99.90
51035;DHT22;37062;52.546;13.230;2022-12-29T10:12:55;13.90;99.90
51035;DHT22;37062;52.546;13.230;2022-12-29T10:15:45;13.80;99.90
51035;DHT22;37062;52.546;13.230;2022-12-29T10:18:25;13.90;99.90
51035;DHT22;37062;52.546;13.230;2022-12-29T10:20:57;13.80;99.90
51035;DHT22;37062;52.546;13.230;2022-12-29T10:23:28;13.80;99.90
51035;DHT22;37062;52.546;13.230;2022-12-29T10:25:59;13.90;99.90
51035;DHT22;37062;52.546;13.230;2022-12-29T10:28:35;13.90;99.90
51035;DHT22;37062;52.546;13.230;2022-12-29T10:31:11;14.00;99.90
51035;DHT22;37062;52.546;13.230;2022-12-29T10:33:42;14.00;99.90
51035;DHT22;37062;52.546;13.230;2022-12-29T10:36:16;14.20;99.90
51035;DHT22;37062;52.546;13.230;2022-12-29T10:38:52;14.30;99.90
51035;DHT22;37062;52.546;13.230;2022-12-29T10:41:24;14.30;99.90
51035;DHT22;37062;52.546;13.230;2022-12-29T10:43:56;14.40;99.90
51035;DHT22;37062;52.546;13.230;2022-12-29T10:46:29;14.50;99.90
51035;DHT22;37062;52.546;13.230;2022-12-29T10:49:01;14.50;99.90
51035;DHT22;37062;52.546;13.230;2022-12-29T10:51:32;14.60;99.90
51035;DHT22;37062;52.546;13.230;2022-12-29T10:54:04;14.60;99.90
51035;DHT22;37062;52.546;13.230;2022-12-29T10:56:36;14.70;99.90
51035;DHT22;37062;52.546;13.230;2022-12-29T10:59:13;14.70;99.90
51035;DHT22;37062;52.546;13.230;2022-12-29T11:01:55;14.60;99.90
51035;DHT22;37062;52.546;13.230;2022-12-29T11:04:42;14.70;99.90
51035;DHT22;37062;52.546;13.230;2022-12-29T11:07:11;14.70;99.90
51035;DHT22;37062;52.546;13.230;2022-12-29T11:09:43;14.70;99.90
51035;DHT22;37062;52.546;13.230;2022-12-29T11:12:24;14.70;99.90
51035;DHT22;37062;52.546;13.230;2022-12-29T11:15:12;14.60;99.90
51035;DHT22;37062;52.546;13.230;2022-12-29T11:17:47;14.70;99.90
51035;DHT22;37062;52.546;13.230;2022-12-29T11:20:34;14.70;99.90
51035;DHT22;37062;52.546;13.230;2022-12-29T11:23:21;14.70;99.90
51035;DHT22;37062;52.546;13.230;2022-12-29T11:26:06;14.70;99.90
51035;DHT22;37062;52.546;13.230;2022-12-29T11:28:34;14.70;99.90
51035;DHT22;37062;52.546;13.230;2022-12-29T11:31:04;14.70;99.90
51035;DHT22;37062;52.546;13.230;2022-12-29T11:33:35;14.70;99.90
51035;DHT22;37062;52.546;13.230;2022-12-29T11:36:06;14.60;99.90
51035;DHT22;37062;52.546;13.230;2022-12-29T11:38:37;14.50;99.90
51035;DHT22;37062;52.546;13.230;2022-12-29T11:41:11;14.40;99.90
51035;DHT22;37062;52.546;13.230;2022-12-29T11:43:42;14.40;99.90
51035;DHT22;37062;52.546;13.230;2022-12-29T11:46:16;14.40;99.90
51035;DHT22;37062;52.546;13.230;2022-12-29T11:48:47;14.40;99.90
51035;DHT22;37062;52.546;13.230;2022-12-29T11:51:22;14.40;99.90
51035;DHT22;37062;52.546;13.230;2022-12-29T11:53:55;14.30;99.90
51035;DHT22;37062;52.546;13.230;2022-12-29T11:56:34;14.30;99.90
51035;DHT22;37062;52.546;13.230;2022-12-29T11:59:37;14.20;99.90
51035;DHT22;37062;52.546;13.230;2022-12-29T12:05:30;14.00;99.90
51035;DHT22;37062;52.546;13.230;2022-12-29T12:08:05;13.90;99.90
51035;DHT22;37062;52.546;13.230;2022-12-29T12:10:46;13.90;99.90
51035;DHT22;37062;52.546;13.230;2022-12-29T12:13:24;13.80;99.90
51035;DHT22;37062;52.546;13.230;2022-12-29T12:15:58;13.70;99.90
51035;DHT22;37062;52.546;13.230;2022-12-29T12:18:34;13.70;99.90
51035;DHT22;37062;52.546;13.230;2022-12-29T12:21:12;13.60;99.90
51035;DHT22;37062;52.546;13.230;2022-12-29T12:24:00;13.50;99.90
51035;DHT22;37062;52.546;13.230;2022-12-29T12:26:35;13.50;99.90
51035;DHT22;37062;52.546;13.230;2022-12-29T12:29:12;13.50;99.90
51035;DHT22;37062;52.546;13.230;2022-12-29T12:31:49;13.50;99.90
51035;DHT22;37062;52.546;13.230;2022-12-29T12:34:23;13.50;99.90
51035;DHT22;37062;52.546;13.230;2022-12-29T12:37:06;13.50;99.90
51035;DHT22;37062;52.546;13.230;2022-12-29T12:39:47;13.60;99.90
51035;DHT22;37062;52.546;13.230;2022-12-29T12:42:34;13.50;99.90
51035;DHT22;37062;52.546;13.230;2022-12-29T12:48:22;13.40;99.90
51035;DHT22;37062;52.546;13.230;2022-12-29T12:51:02;13.50;99.90
51035;DHT22;37062;52.546;13.230;2022-12-29T12:53:47;13.50;99.90
51035;DHT22;37062;52.546;13.230;2022-12-29T12:56:52;13.50;99.90
51035;DHT22;37062;52.546;13.230;2022-12-29T12:59:33;13.50;99.90
51035;DHT22;37062;52.546;13.230;2022-12-29T13:02:17;13.50;99.90
51035;DHT22;37062;52.546;13.230;2022-12-29T13:05:04;13.50;99.90
51035;DHT22;37062;52.546;13.230;2022-12-29T13:07:43;13.40;99.90
51035;DHT22;37062;52.546;13.230;2022-12-29T13:10:36;13.40;99.90
51035;DHT22;37062;52.546;13.230;2022-12-29T13:16:04;13.40;99.90
51035;DHT22;37062;52.546;13.230;2022-12-29T13:18:48;13.40;99.90
51035;DHT22;37062;52.546;13.230;2022-12-29T13:21:34;13.50;99.90
51035;DHT22;37062;52.546;13.230;2022-12-29T13:24:11;13.40;99.90
51035;DHT22;37062;52.546;13.230;2022-12-29T13:26:48;13.40;99.90
51035;DHT22;37062;52.546;13.230;2022-12-29T13:29:20;13.40;99.90
51035;DHT22;37062;52.546;13.230;2022-12-29T13:31:54;13.30;99.90
51035;DHT22;37062;52.546;13.230;2022-12-29T13:34:30;13.30;99.90
51035;DHT22;37062;52.546;13.230;2022-12-29T13:37:03;13.30;99.90
51035;DHT22;37062;52.546;13.230;2022-12-29T13:39:34;13.30;99.90
51035;DHT22;37062;52.546;13.230;2022-12-29T13:42:06;13.30;99.90
51035;DHT22;37062;52.546;13.230;2022-12-29T13:44:38;13.30;99.90
51035;DHT22;37062;52.546;13.230;2022-12-29T13:47:20;13.30;99.90
51035;DHT22;37062;52.546;13.230;2022-12-29T13:49:50;13.40;99.90
51035;DHT22;37062;52.546;13.230;2022-12-29T13:52:27;13.40;99.90
51035;DHT22;37062;52.546;13.230;2022-12-29T13:55:02;13.40;99.90
51035;DHT22;37062;52.546;13.230;2022-12-29T13:57:44;13.50;99.90
51035;DHT22;37062;52.546;13.230;2022-12-29T14:00:16;13.50;99.90
51035;DHT22;37062;52.546;13.230;2022-12-29T14:03:02;13.60;99.90
51035;DHT22;37062;52.546;13.230;2022-12-29T14:05:36;13.60;99.90
51035;DHT22;37062;52.546;13.230;2022-12-29T14:08:10;13.60;99.90
51035;DHT22;37062;52.546;13.230;2022-12-29T14:10:47;13.50;99.90
51035;DHT22;37062;52.546;13.230;2022-12-29T14:13:19;13.50;99.90
51035;DHT22;37062;52.546;13.230;2022-12-29T14:15:58;13.40;99.90
51035;DHT22;37062;52.546;13.230;2022-12-29T14:18:30;13.40;99.90
51035;DHT22;37062;52.546;13.230;2022-12-29T14:21:01;13.30;99.90
51035;DHT22;37062;52.546;13.230;2022-12-29T14:23:39;13.30;99.90
51035;DHT22;37062;52.546;13.230;2022-12-29T14:26:13;13.40;99.90
51035;DHT22;37062;52.546;13.230;2022-12-29T14:28:44;13.30;99.90
51035;DHT22;37062;52.546;13.230;2022-12-29T14:31:35;13.30;99.90
51035;DHT22;37062;52.546;13.230;2022-12-29T14:34:38;13.30;99.90
51035;DHT22;37062;52.546;13.230;2022-12-29T14:37:23;13.30;99.90
51035;DHT22;37062;52.546;13.230;2022-12-29T14:40:04;13.30;99.90
51035;DHT22;37062;52.546;13.230;2022-12-29T14:42:33;13.30;99.90
51035;DHT22;37062;52.546;13.230;2022-12-29T14:45:07;13.40;99.90
51035;DHT22;37062;52.546;13.230;2022-12-29T14:47:38;13.30;99.90
51035;DHT22;37062;52.546;13.230;2022-12-29T14:50:14;13.40;99.90
51035;DHT22;37062;52.546;13.230;2022-12-29T14:52:46;13.30;99.90
51035;DHT22;37062;52.546;13.230;2022-12-29T14:55:37;13.30;99.90
51035;DHT22;37062;52.546;13.230;2022-12-29T14:58:12;13.30;99.90
51035;DHT22;37062;52.546;13.230;2022-12-29T15:00:44;13.40;99.90
51035;DHT22;37062;52.546;13.230;2022-12-29T15:03:18;13.30;99.90
51035;DHT22;37062;52.546;13.230;2022-12-29T15:05:50;13.40;99.90
51035;DHT22;37062;52.546;13.230;2022-12-29T15:08:21;13.40;99.90
51035;DHT22;37062;52.546;13.230;2022-12-29T15:10:55;13.40;99.90
51035;DHT22;37062;52.546;13.230;2022-12-29T15:13:33;13.30;99.90
51035;DHT22;37062;52.546;13.230;2022-12-29T15:16:04;13.30;99.90
51035;DHT22;37062;52.546;13.230;2022-12-29T15:18:33;13.20;99.90
51035;DHT22;37062;52.546;13.230;2022-12-29T15:21:04;13.20;99.90
51035;DHT22;37062;52.546;13.230;2022-12-29T15:23:34;13.10;99.90
51035;DHT22;37062;52.546;13.230;2022-12-29T15:26:04;13.10;99.90
51035;DHT22;37062;52.546;13.230;2022-12-29T15:28:38;13.10;99.90
51035;DHT22;37062;52.546;13.230;2022-12-29T15:31:12;13.10;99.90
51035;DHT22;37062;52.546;13.230;2022-12-29T15:33:42;13.10;99.90
51035;DHT22;37062;52.546;13.230;2022-12-29T15:36:13;13.00;99.90
51035;DHT22;37062;52.546;13.230;2022-12-29T15:38:41;13.00;99.90
51035;DHT22;37062;52.546;13.230;2022-12-29T15:41:23;12.90;99.90
51035;DHT22;37062;52.546;13.230;2022-12-29T15:44:00;12.90;99.90
51035;DHT22;37062;52.546;13.230;2022-12-29T15:46:32;12.80;99.90
51035;DHT22;37062;52.546;13.230;2022-12-29T15:49:05;12.70;99.90
51035;DHT22;37062;52.546;13.230;2022-12-29T15:51:35;12.70;99.90
51035;DHT22;37062;52.546;13.230;2022-12-29T15:54:05;12.70;99.90
51035;DHT22;37062;52.546;13.230;2022-12-29T15:56:33;12.70;99.90
51035;DHT22;37062;52.546;13.230;2022-12-29T15:59:02;12.70;99.90
51035;DHT22;37062;52.546;13.230;2022-12-29T16:01:33;12.60;99.90
51035;DHT22;37062;52.546;13.230;2022-12-29T16:04:05;12.70;99.90
51035;DHT22;37062;52.546;13.230;2022-12-29T16:06:35;12.60;99.90
51035;DHT22;37062;52.546;13.230;2022-12-29T16:09:05;12.70;99.90